Time;durP1;ratioP1;P1;durP2;ratioP2;P2;SDS_P1;SDS_P2;PMS_P1;PMS_P2;Temp;Humidity;BMP_temperature;BMP_pressure;BME280_temperature;BME280_humidity;BME280_pressure;Samples;Min_cycle;Max_cycle;Signal;HPM_P1;HPM_P2
2022/05/03 00:01:36;;;;;;;2.53;2.42;;;;;;;;;;4980775;28;20204;-60
2022/05/03 00:04:07;;;;;;;3.00;2.80;;;;;;;;;;4966046;28;20315;-60
2022/05/03 00:06:43;;;;;;;2.75;2.55;;;;;;;;;;4961786;29;20247;-60
2022/05/03 00:09:14;;;;;;;3.10;2.65;;;;;;;;;;4973478;28;20262;-60
2022/05/03 00:11:46;;;;;;;2.55;2.35;;;;;;;;;;4961756;29;20208;-60
2022/05/03 00:14:18;;;;;;;2.70;2.50;;;;;;;;;;4971095;28;20231;-60
2022/05/03 00:16:46;;;;;;;2.55;2.45;;;;;;;;;;4981707;28;20214;-60
2022/05/03 00:19:14;;;;;;;2.88;2.67;;;;;;;;;;4981238;28;20219;-60
2022/05/03 00:21:41;;;;;;;2.92;2.72;;;;;;;;;;4981124;28;20203;-60
2022/05/03 00:24:09;;;;;;;2.92;2.75;;;;;;;;;;4980978;28;20629;-60
2022/05/03 00:26:36;;;;;;;2.80;2.60;;;;;;;;;;4980917;28;20207;-60
2022/05/03 00:29:05;;;;;;;2.72;2.53;;;;;;;;;;4980441;28;20589;-60
2022/05/03 00:31:33;;;;;;;2.72;2.53;;;;;;;;;;4980913;28;20244;-60
2022/05/03 00:34:01;;;;;;;2.58;2.38;;;;;;;;;;4980737;28;20574;-60
2022/05/03 00:36:28;;;;;;;2.50;2.40;;;;;;;;;;4981192;28;20298;-60
2022/05/03 00:38:55;;;;;;;2.80;2.60;;;;;;;;;;4976574;28;20509;-60
2022/05/03 00:41:27;;;;;;;3.00;2.80;;;;;;;;;;4961293;28;20204;-60
2022/05/03 00:43:59;;;;;;;2.83;2.63;;;;;;;;;;4953776;29;20255;-60
2022/05/03 00:46:30;;;;;;;2.90;2.60;;;;;;;;;;4962088;29;20208;-60
2022/05/03 00:49:14;;;;;;;2.80;2.60;;;;;;;;;;4961986;28;20235;-60
2022/05/03 00:51:46;;;;;;;2.83;2.63;;;;;;;;;;4961943;29;20212;-60
2022/05/03 00:54:19;;;;;;;2.60;2.40;;;;;;;;;;4961937;28;20209;-60
2022/05/03 00:56:56;;;;;;;2.80;2.60;;;;;;;;;;4962137;28;20200;-60
2022/05/03 00:59:34;;;;;;;2.50;2.40;;;;;;;;;;4970031;28;20203;-60
2022/05/03 01:02:04;;;;;;;2.80;2.60;;;;;;;;;;4980916;28;20203;-60
2022/05/03 01:04:37;;;;;;;2.65;2.53;;;;;;;;;;4978598;28;20224;-60
2022/05/03 01:07:13;;;;;;;2.50;2.30;;;;;;;;;;4961369;28;20597;-60
2022/05/03 01:09:41;;;;;;;2.50;2.40;;;;;;;;;;4976032;28;20254;-60
2022/05/03 01:12:14;;;;;;;2.75;2.55;;;;;;;;;;4980692;28;20207;-60
2022/05/03 01:14:46;;;;;;;2.60;2.40;;;;;;;;;;4980608;28;20203;-60
2022/05/03 01:17:23;;;;;;;2.28;2.17;;;;;;;;;;4978973;28;20207;-60
2022/05/03 01:19:56;;;;;;;2.50;2.38;;;;;;;;;;4981065;28;20553;-60
2022/05/03 01:22:41;;;;;;;2.70;2.50;;;;;;;;;;4972485;28;20215;-60
2022/05/03 01:25:14;;;;;;;2.58;2.40;;;;;;;;;;4958227;28;20659;-60
2022/05/03 01:27:46;;;;;;;2.22;2.13;;;;;;;;;;4961754;28;20590;-60
2022/05/03 01:30:15;;;;;;;2.70;2.50;;;;;;;;;;4961170;29;20212;-60
2022/05/03 01:32:44;;;;;;;2.58;2.40;;;;;;;;;;4973149;28;20244;-60
2022/05/03 01:35:13;;;;;;;2.75;2.55;;;;;;;;;;4980381;28;20217;-60
2022/05/03 01:37:58;;;;;;;2.60;2.50;;;;;;;;;;4980250;28;20230;-60
2022/05/03 01:40:33;;;;;;;2.55;2.45;;;;;;;;;;4980560;28;20270;-60
2022/05/03 01:43:13;;;;;;;2.55;2.40;;;;;;;;;;4988080;28;20665;-60
2022/05/03 01:45:45;;;;;;;2.60;2.50;;;;;;;;;;4987931;28;20211;-60
2022/05/03 01:48:20;;;;;;;2.63;2.42;;;;;;;;;;4980032;28;20213;-60
2022/05/03 01:50:49;;;;;;;2.50;2.40;;;;;;;;;;4979634;28;20231;-60
2022/05/03 01:53:18;;;;;;;2.45;2.35;;;;;;;;;;4980155;28;20207;-60
2022/05/03 01:56:10;;;;;;;2.40;2.30;;;;;;;;;;4981145;28;20306;-60
2022/05/03 01:58:44;;;;;;;2.42;2.33;;;;;;;;;;4979918;28;20214;-60
2022/05/03 02:01:16;;;;;;;2.40;2.30;;;;;;;;;;4979958;28;20203;-59
2022/05/03 02:03:47;;;;;;;2.40;2.30;;;;;;;;;;4980698;28;20242;-60
2022/05/03 02:06:15;;;;;;;2.40;2.30;;;;;;;;;;4979954;28;20204;-60
2022/05/03 02:08:52;;;;;;;2.40;2.30;;;;;;;;;;4987679;28;20214;-60
2022/05/03 02:11:34;;;;;;;2.60;2.45;;;;;;;;;;4981720;28;20219;-59
2022/05/03 02:16:59;;;;;;;2.70;2.50;;;;;;;;;;4998695;28;20349;-60
2022/05/03 02:19:35;;;;;;;2.67;2.47;;;;;;;;;;4999192;28;20210;-60
2022/05/03 02:22:07;;;;;;;2.75;2.55;;;;;;;;;;4998708;28;20221;-60
2022/05/03 02:24:41;;;;;;;2.47;2.38;;;;;;;;;;4998338;28;20237;-60
2022/05/03 02:27:09;;;;;;;2.25;2.15;;;;;;;;;;4984892;28;20498;-60
2022/05/03 02:29:42;;;;;;;2.50;2.40;;;;;;;;;;4979316;28;20207;-60
2022/05/03 02:32:12;;;;;;;2.58;2.47;;;;;;;;;;4971493;28;20271;-60
2022/05/03 02:34:42;;;;;;;2.58;2.47;;;;;;;;;;4959666;29;20625;-60
2022/05/03 02:37:14;;;;;;;2.33;2.22;;;;;;;;;;4959866;29;20629;-60
2022/05/03 02:39:47;;;;;;;2.60;2.40;;;;;;;;;;4970118;28;20251;-60
2022/05/03 02:42:15;;;;;;;2.63;2.42;;;;;;;;;;4979169;28;20254;-60
2022/05/03 02:44:42;;;;;;;2.35;2.25;;;;;;;;;;4978715;28;20231;-60
2022/05/03 02:47:15;;;;;;;2.30;2.20;;;;;;;;;;4978448;28;20207;-60
2022/05/03 02:49:47;;;;;;;2.63;2.45;;;;;;;;;;4979243;28;20569;-60
2022/05/03 02:52:18;;;;;;;2.47;2.28;;;;;;;;;;4978579;28;20207;-60
2022/05/03 02:54:52;;;;;;;2.40;2.30;;;;;;;;;;4979045;28;20218;-60
2022/05/03 02:57:25;;;;;;;2.50;2.40;;;;;;;;;;4978573;28;20199;-60
2022/05/03 03:02:52;;;;;;;2.63;2.45;;;;;;;;;;4958648;28;20244;-60
2022/05/03 03:05:23;;;;;;;2.22;2.13;;;;;;;;;;4959190;28;20608;-60
2022/05/03 03:07:55;;;;;;;2.40;2.30;;;;;;;;;;4959288;28;20215;-60
2022/05/03 03:10:26;;;;;;;2.85;2.65;;;;;;;;;;4962042;28;20271;-60
2022/05/03 03:12:55;;;;;;;2.45;2.35;;;;;;;;;;4970312;28;20203;-60
2022/05/03 03:15:28;;;;;;;2.40;2.30;;;;;;;;;;4978408;28;20207;-60
2022/05/03 03:17:58;;;;;;;2.28;2.17;;;;;;;;;;4971504;28;20216;-60
2022/05/03 03:20:26;;;;;;;2.90;2.70;;;;;;;;;;4970729;28;20203;-60
2022/05/03 03:22:54;;;;;;;2.38;2.28;;;;;;;;;;4977977;28;20216;-60
2022/05/03 03:25:22;;;;;;;2.40;2.20;;;;;;;;;;4977949;28;20259;-60
2022/05/03 03:27:50;;;;;;;2.65;2.45;;;;;;;;;;4976752;28;20483;-60
2022/05/03 03:30:18;;;;;;;2.85;2.65;;;;;;;;;;4978212;28;20253;-60
2022/05/03 03:32:47;;;;;;;2.33;2.15;;;;;;;;;;4977584;28;20231;-60
2022/05/03 03:35:17;;;;;;;2.33;2.22;;;;;;;;;;4977949;28;20211;-60
2022/05/03 03:37:45;;;;;;;2.00;1.90;;;;;;;;;;4976604;28;20210;-60
2022/05/03 03:40:13;;;;;;;2.50;2.40;;;;;;;;;;4963261;28;20209;-60
2022/05/03 03:42:41;;;;;;;2.10;2.00;;;;;;;;;;4971997;28;20207;-60
2022/05/03 03:45:09;;;;;;;2.40;2.30;;;;;;;;;;4960508;28;20220;-60
2022/05/03 03:47:36;;;;;;;2.28;2.15;;;;;;;;;;4958109;28;20586;-60
2022/05/03 03:50:04;;;;;;;2.40;2.20;;;;;;;;;;4959045;29;20208;-60
2022/05/03 03:52:34;;;;;;;2.33;2.22;;;;;;;;;;4958612;28;20196;-60
2022/05/03 03:55:02;;;;;;;2.33;2.22;;;;;;;;;;4958298;28;20359;-60
2022/05/03 03:57:30;;;;;;;2.17;2.08;;;;;;;;;;4958196;28;20200;-60
2022/05/03 03:59:58;;;;;;;2.40;2.30;;;;;;;;;;4958272;29;20209;-60
2022/05/03 04:02:26;;;;;;;2.67;2.47;;;;;;;;;;4960557;28;20604;-60
2022/05/03 04:04:54;;;;;;;2.25;2.15;;;;;;;;;;4977297;28;20652;-60
2022/05/03 04:07:21;;;;;;;2.60;2.40;;;;;;;;;;4973253;28;20200;-60
2022/05/03 04:09:50;;;;;;;2.40;2.30;;;;;;;;;;4968945;28;20624;-60
2022/05/03 04:12:20;;;;;;;2.47;2.38;;;;;;;;;;4977833;28;20208;-60
2022/05/03 04:14:48;;;;;;;2.25;2.15;;;;;;;;;;4962745;28;20208;-60
2022/05/03 04:17:15;;;;;;;2.38;2.17;;;;;;;;;;4961430;29;20525;-60
2022/05/03 04:19:43;;;;;;;2.28;2.17;;;;;;;;;;4961386;29;20204;-61
2022/05/03 04:22:27;;;;;;;2.20;2.10;;;;;;;;;;4961203;29;20263;-60
2022/05/03 04:24:56;;;;;;;2.30;2.20;;;;;;;;;;4962321;28;20240;-60
2022/05/03 04:27:24;;;;;;;2.35;2.25;;;;;;;;;;4980308;28;20212;-59
2022/05/03 04:29:51;;;;;;;2.20;2.10;;;;;;;;;;4980513;28;20207;-60
2022/05/03 04:32:19;;;;;;;2.38;2.28;;;;;;;;;;4979887;28;20228;-60
2022/05/03 04:34:46;;;;;;;2.40;2.30;;;;;;;;;;4979991;28;20203;-60
2022/05/03 04:37:14;;;;;;;2.30;2.20;;;;;;;;;;4978883;28;20208;-60
2022/05/03 04:39:42;;;;;;;2.30;2.20;;;;;;;;;;4960564;29;20208;-59
2022/05/03 04:42:11;;;;;;;2.20;2.10;;;;;;;;;;4963671;28;20196;-60
2022/05/03 04:44:39;;;;;;;2.42;2.30;;;;;;;;;;4970303;28;20227;-60
2022/05/03 04:47:06;;;;;;;2.47;2.38;;;;;;;;;;4978719;28;20216;-60
2022/05/03 04:49:33;;;;;;;2.33;2.22;;;;;;;;;;4977884;28;20207;-60
2022/05/03 04:52:01;;;;;;;2.20;2.10;;;;;;;;;;4979190;28;20214;-60
2022/05/03 04:54:29;;;;;;;2.33;2.22;;;;;;;;;;4967473;28;20259;-60
2022/05/03 04:56:58;;;;;;;2.20;2.10;;;;;;;;;;4959803;28;20683;-60
2022/05/03 04:59:27;;;;;;;2.20;2.10;;;;;;;;;;4958603;28;20215;-59
2022/05/03 05:01:54;;;;;;;2.47;2.38;;;;;;;;;;4958713;29;20209;-59
2022/05/03 05:04:22;;;;;;;2.20;2.10;;;;;;;;;;4958583;28;20224;-60
2022/05/03 05:06:49;;;;;;;2.40;2.20;;;;;;;;;;4958929;29;20498;-60
2022/05/03 05:09:17;;;;;;;2.30;2.20;;;;;;;;;;4958924;28;20211;-60
2022/05/03 05:11:44;;;;;;;2.33;2.20;;;;;;;;;;4957683;28;20193;-59
2022/05/03 05:14:11;;;;;;;2.15;2.05;;;;;;;;;;4957494;28;20204;-59
2022/05/03 05:16:41;;;;;;;2.33;2.20;;;;;;;;;;4974377;28;20207;-59
2022/05/03 05:19:09;;;;;;;2.30;2.20;;;;;;;;;;4977381;28;20290;-60
2022/05/03 05:21:36;;;;;;;2.30;2.20;;;;;;;;;;4977233;28;20211;-60
2022/05/03 05:24:04;;;;;;;2.40;2.30;;;;;;;;;;4971487;28;20556;-60
2022/05/03 05:26:32;;;;;;;2.35;2.25;;;;;;;;;;4956963;29;20219;-60
2022/05/03 05:28:59;;;;;;;2.50;2.40;;;;;;;;;;4963527;28;20199;-60
2022/05/03 05:31:27;;;;;;;2.40;2.30;;;;;;;;;;4977465;28;20208;-60
2022/05/03 05:33:55;;;;;;;2.45;2.25;;;;;;;;;;4958628;28;20219;-59
2022/05/03 05:36:23;;;;;;;2.30;2.20;;;;;;;;;;4957575;29;20648;-59
2022/05/03 05:38:50;;;;;;;2.30;2.10;;;;;;;;;;4968856;28;20214;-60
2022/05/03 05:41:18;;;;;;;2.20;2.10;;;;;;;;;;4959124;28;20214;-60
2022/05/03 05:43:47;;;;;;;2.20;2.10;;;;;;;;;;4960136;28;20208;-60
2022/05/03 05:46:15;;;;;;;2.30;2.20;;;;;;;;;;4974970;28;20214;-60
2022/05/03 05:48:43;;;;;;;2.50;2.40;;;;;;;;;;4974762;28;20681;-59
2022/05/03 05:51:11;;;;;;;2.28;2.17;;;;;;;;;;4976878;28;20299;-59
2022/05/03 05:53:38;;;;;;;2.13;2.03;;;;;;;;;;4976368;28;20208;-60
2022/05/03 05:56:07;;;;;;;2.35;2.25;;;;;;;;;;4976562;28;20239;-59
2022/05/03 05:58:34;;;;;;;2.47;2.38;;;;;;;;;;4975754;28;20255;-59
2022/05/03 06:01:02;;;;;;;2.22;2.13;;;;;;;;;;4973335;28;20597;-59
2022/05/03 06:03:29;;;;;;;2.17;2.08;;;;;;;;;;4976440;28;20207;-60
2022/05/03 06:05:58;;;;;;;2.30;2.20;;;;;;;;;;4957115;28;20255;-59
2022/05/03 06:08:27;;;;;;;2.15;2.05;;;;;;;;;;4958051;28;20208;-59
2022/05/03 06:10:58;;;;;;;2.35;2.25;;;;;;;;;;4970112;28;20232;-59
2022/05/03 06:13:25;;;;;;;2.17;2.08;;;;;;;;;;4969553;28;20200;-60
2022/05/03 06:15:54;;;;;;;2.20;2.10;;;;;;;;;;4953255;29;20244;-60
2022/05/03 06:18:22;;;;;;;2.13;2.03;;;;;;;;;;4953225;29;20302;-60
2022/05/03 06:20:50;;;;;;;2.28;2.17;;;;;;;;;;4952736;29;20211;-60
2022/05/03 06:23:17;;;;;;;2.00;1.90;;;;;;;;;;4953206;29;20208;-59
2022/05/03 06:25:47;;;;;;;2.40;2.30;;;;;;;;;;4961406;28;20215;-59
2022/05/03 06:28:14;;;;;;;2.30;2.20;;;;;;;;;;4974667;28;20305;-59
2022/05/03 06:30:42;;;;;;;2.20;2.10;;;;;;;;;;4975707;28;20494;-60
2022/05/03 06:33:09;;;;;;;2.05;1.95;;;;;;;;;;4974892;28;20246;-60
2022/05/03 06:35:37;;;;;;;2.22;2.10;;;;;;;;;;4973700;28;20204;-60
2022/05/03 06:38:04;;;;;;;2.28;2.17;;;;;;;;;;4973661;28;20589;-60
2022/05/03 06:40:31;;;;;;;2.30;2.20;;;;;;;;;;4956757;28;20212;-60
2022/05/03 06:43:00;;;;;;;2.30;2.20;;;;;;;;;;4955857;29;20200;-60
2022/05/03 06:45:28;;;;;;;2.20;2.10;;;;;;;;;;4955654;28;20216;-60
2022/05/03 06:47:55;;;;;;;2.15;2.00;;;;;;;;;;4952205;29;20758;-60
2022/05/03 06:50:23;;;;;;;2.03;1.92;;;;;;;;;;4956174;28;20211;-60
2022/05/03 06:52:51;;;;;;;2.00;1.90;;;;;;;;;;4955607;29;20216;-60
2022/05/03 06:55:19;;;;;;;2.30;2.10;;;;;;;;;;4956188;28;20211;-60
2022/05/03 06:57:48;;;;;;;2.10;2.00;;;;;;;;;;4954336;29;20294;-60
2022/05/03 07:00:17;;;;;;;2.50;2.30;;;;;;;;;;4968586;28;20632;-60
2022/05/03 07:02:44;;;;;;;2.30;2.20;;;;;;;;;;4972038;28;20231;-59
2022/05/03 07:05:12;;;;;;;5.53;2.45;;;;;;;;;;4959596;28;20220;-59
2022/05/03 07:07:39;;;;;;;3.08;2.25;;;;;;;;;;4956994;28;20727;-59
2022/05/03 07:10:07;;;;;;;3.92;3.63;;;;;;;;;;4956187;28;20204;-60
2022/05/03 07:12:35;;;;;;;3.97;3.60;;;;;;;;;;4955652;29;20208;-59
2022/05/03 07:15:04;;;;;;;3.70;3.40;;;;;;;;;;4963074;28;20212;-59
2022/05/03 07:23:03;;;;;;;5.40;5.00;;;;;;;;;;4966972;28;20298;-59
2022/05/03 07:25:32;;;;;;;4.97;4.50;;;;;;;;;;4964191;28;20636;-59
2022/05/03 07:28:00;;;;;;;5.93;5.38;;;;;;;;;;4963625;28;20270;-59
2022/05/03 07:30:27;;;;;;;6.20;5.30;;;;;;;;;;4965273;28;20227;-59
2022/05/03 07:32:56;;;;;;;4.28;3.97;;;;;;;;;;4963640;28;20231;-59
2022/05/03 07:35:24;;;;;;;4.10;3.55;;;;;;;;;;4964290;28;20200;-59
2022/05/03 07:37:52;;;;;;;5.80;5.38;;;;;;;;;;4963495;28;20586;-59
2022/05/03 07:40:19;;;;;;;6.15;5.60;;;;;;;;;;4963773;28;20203;-59
2022/05/03 07:42:47;;;;;;;6.65;6.15;;;;;;;;;;4964356;28;20197;-59
2022/05/03 07:45:16;;;;;;;6.57;5.97;;;;;;;;;;4963740;28;20224;-60
2022/05/03 07:47:43;;;;;;;5.35;4.95;;;;;;;;;;4964173;28;20208;-60
2022/05/03 07:50:13;;;;;;;6.93;5.60;;;;;;;;;;4967046;28;20593;-59
2022/05/03 07:52:41;;;;;;;5.60;5.10;;;;;;;;;;4967026;28;20193;-59
2022/05/03 07:55:09;;;;;;;6.53;5.93;;;;;;;;;;4969034;28;20218;-59
2022/05/03 07:57:36;;;;;;;5.47;5.07;;;;;;;;;;4968679;28;21266;-59
2022/05/03 08:00:04;;;;;;;5.20;4.80;;;;;;;;;;4967696;28;20220;-59
2022/05/03 08:02:31;;;;;;;5.50;5.00;;;;;;;;;;4968226;28;20200;-58
2022/05/03 08:04:59;;;;;;;5.65;5.18;;;;;;;;;;4968613;28;20644;-59
2022/05/03 08:07:28;;;;;;;5.88;5.38;;;;;;;;;;4968055;28;20204;-60
2022/05/03 08:09:55;;;;;;;5.22;4.93;;;;;;;;;;4967050;28;20199;-59
2022/05/03 08:12:23;;;;;;;5.90;5.30;;;;;;;;;;4967112;28;20593;-59
2022/05/03 08:14:52;;;;;;;5.45;5.05;;;;;;;;;;4969875;28;20263;-59
2022/05/03 08:17:19;;;;;;;5.40;5.00;;;;;;;;;;4967514;28;20204;-59
2022/05/03 08:19:47;;;;;;;5.40;5.00;;;;;;;;;;4969536;28;20192;-59
2022/05/03 08:22:14;;;;;;;5.07;4.68;;;;;;;;;;4969460;28;20192;-59
2022/05/03 08:24:43;;;;;;;5.25;4.85;;;;;;;;;;4967039;28;20208;-59
2022/05/03 08:27:11;;;;;;;5.40;5.00;;;;;;;;;;4969316;28;20568;-58
2022/05/03 08:29:38;;;;;;;5.35;4.75;;;;;;;;;;4969289;28;20191;-59
2022/05/03 08:32:06;;;;;;;4.88;4.47;;;;;;;;;;4967265;28;20236;-59
2022/05/03 08:34:34;;;;;;;4.40;4.00;;;;;;;;;;4967214;28;20192;-58
2022/05/03 08:42:32;;;;;;;4.63;4.28;;;;;;;;;;4967691;28;20199;-59
2022/05/03 08:45:01;;;;;;;4.43;4.13;;;;;;;;;;4967294;28;20222;-59
2022/05/03 08:47:29;;;;;;;5.15;4.75;;;;;;;;;;4966854;28;20227;-59
2022/05/03 08:49:58;;;;;;;5.05;4.60;;;;;;;;;;4959156;28;20200;-59
2022/05/03 08:52:28;;;;;;;4.70;4.15;;;;;;;;;;4966430;28;20200;-59
2022/05/03 08:54:57;;;;;;;5.15;4.78;;;;;;;;;;4968346;28;21282;-59
2022/05/03 08:57:25;;;;;;;4.45;4.05;;;;;;;;;;4966676;28;20201;-58
2022/05/03 08:59:52;;;;;;;4.18;3.88;;;;;;;;;;4966276;28;20208;-59
2022/05/03 09:02:19;;;;;;;4.30;4.00;;;;;;;;;;4966420;28;20213;-59
2022/05/03 09:04:48;;;;;;;4.10;3.80;;;;;;;;;;4967342;28;20724;-59
2022/05/03 09:07:19;;;;;;;4.32;3.92;;;;;;;;;;4966871;28;20223;-59
2022/05/03 09:09:47;;;;;;;4.70;4.30;;;;;;;;;;4965571;28;20208;-59
2022/05/03 09:12:27;;;;;;;4.53;4.20;;;;;;;;;;4965441;28;20594;-59
2022/05/03 09:14:57;;;;;;;4.60;4.30;;;;;;;;;;4965118;28;20204;-59
2022/05/03 09:17:37;;;;;;;4.45;4.15;;;;;;;;;;4967683;28;20208;-59
2022/05/03 09:23:46;;;;;;;4.82;4.43;;;;;;;;;;4959876;28;20215;-59
2022/05/03 09:25:56;;;;;;;4.60;4.20;;;;;;;;;;4949573;28;20257;-59
2022/05/03 09:28:25;;;;;;;4.43;4.05;;;;;;;;;;4955594;28;20200;-59
2022/05/03 09:30:54;;;;;;;5.43;5.03;;;;;;;;;;4963178;28;20723;-59
2022/05/03 09:33:22;;;;;;;4.50;4.20;;;;;;;;;;4967950;28;20703;-59
2022/05/03 09:35:49;;;;;;;4.47;4.18;;;;;;;;;;4968461;28;20204;-59
2022/05/03 09:38:18;;;;;;;5.00;4.60;;;;;;;;;;4971775;28;20660;-59
2022/05/03 09:40:47;;;;;;;5.00;4.60;;;;;;;;;;4958746;28;20204;-59
2022/05/03 09:43:14;;;;;;;5.25;4.78;;;;;;;;;;4976148;28;20636;-59
2022/05/03 09:45:43;;;;;;;5.70;5.20;;;;;;;;;;4976084;28;20247;-60
2022/05/03 09:48:11;;;;;;;5.35;4.82;;;;;;;;;;4957310;28;20212;-59
2022/05/03 09:50:42;;;;;;;4.97;4.57;;;;;;;;;;4962615;28;20466;-59
2022/05/03 09:53:14;;;;;;;4.60;4.30;;;;;;;;;;4972556;28;20291;-60
2022/05/03 09:55:42;;;;;;;4.85;4.45;;;;;;;;;;4957580;28;20204;-60
2022/05/03 09:58:10;;;;;;;5.35;4.95;;;;;;;;;;4965093;28;20287;-59
2022/05/03 10:00:38;;;;;;;5.03;4.60;;;;;;;;;;4956747;28;20208;-59
2022/05/03 10:03:09;;;;;;;4.63;4.28;;;;;;;;;;4956774;29;20285;-59
2022/05/03 10:05:37;;;;;;;4.95;4.57;;;;;;;;;;4976059;28;20232;-59
2022/05/03 10:08:05;;;;;;;4.70;4.40;;;;;;;;;;4971638;28;20482;-59
2022/05/03 10:10:32;;;;;;;5.22;4.78;;;;;;;;;;4965686;28;20201;-60
2022/05/03 10:13:00;;;;;;;5.68;5.18;;;;;;;;;;4956825;29;20204;-60
2022/05/03 10:21:05;;;;;;;4.82;4.53;;;;;;;;;;4974512;28;20527;-60
2022/05/03 10:23:33;;;;;;;4.78;4.32;;;;;;;;;;4972646;28;20201;-59
2022/05/03 10:26:01;;;;;;;4.53;4.22;;;;;;;;;;4956618;28;20228;-59
2022/05/03 10:28:43;;;;;;;5.03;4.63;;;;;;;;;;4969459;28;20282;-60
2022/05/03 10:31:14;;;;;;;5.70;5.13;;;;;;;;;;4963864;28;20200;-60
2022/05/03 10:33:45;;;;;;;4.68;4.28;;;;;;;;;;4986368;28;20599;-60
2022/05/03 10:36:30;;;;;;;4.90;4.50;;;;;;;;;;4993972;28;20532;-60
2022/05/03 10:39:05;;;;;;;5.07;4.68;;;;;;;;;;4990961;28;20209;-59
2022/05/03 10:41:32;;;;;;;4.88;4.38;;;;;;;;;;4975409;28;20206;-60
2022/05/03 10:44:20;;;;;;;4.90;4.55;;;;;;;;;;4974304;28;20199;-60
2022/05/03 10:46:51;;;;;;;5.30;4.80;;;;;;;;;;4973688;28;20227;-60
2022/05/03 10:49:20;;;;;;;5.32;4.82;;;;;;;;;;4991541;28;20214;-60
2022/05/03 10:51:50;;;;;;;5.78;5.18;;;;;;;;;;4994375;28;20199;-60
2022/05/03 10:54:18;;;;;;;5.15;4.65;;;;;;;;;;4994542;28;20210;-60
2022/05/03 10:57:00;;;;;;;5.25;4.85;;;;;;;;;;4991280;28;20202;-60
2022/05/03 10:59:46;;;;;;;6.45;5.85;;;;;;;;;;4977891;28;20321;-59
2022/05/03 11:02:14;;;;;;;5.97;5.38;;;;;;;;;;4974974;28;20270;-60
2022/05/03 11:05:00;;;;;;;5.57;5.18;;;;;;;;;;4973609;28;20204;-60
2022/05/03 11:07:31;;;;;;;5.40;4.90;;;;;;;;;;4974301;28;20261;-60
2022/05/03 11:10:18;;;;;;;5.00;4.60;;;;;;;;;;4973384;28;20231;-60
2022/05/03 11:12:53;;;;;;;5.35;4.85;;;;;;;;;;4973462;28;20213;-60
2022/05/03 11:15:20;;;;;;;6.00;5.45;;;;;;;;;;4973228;28;20195;-60
2022/05/03 11:17:48;;;;;;;5.50;5.00;;;;;;;;;;4986616;28;20304;-60
2022/05/03 11:20:22;;;;;;;6.88;6.07;;;;;;;;;;4972845;28;20491;-60
2022/05/03 11:22:51;;;;;;;5.85;5.32;;;;;;;;;;4972802;28;20206;-60
2022/05/03 11:25:19;;;;;;;6.55;5.57;;;;;;;;;;4974761;28;20214;-61
2022/05/03 11:27:46;;;;;;;6.20;5.60;;;;;;;;;;4975819;28;20235;-60
2022/05/03 11:30:14;;;;;;;5.80;5.18;;;;;;;;;;4992702;28;20211;-60
2022/05/03 11:32:43;;;;;;;5.97;5.45;;;;;;;;;;4981821;28;20240;-60
2022/05/03 11:35:14;;;;;;;6.32;5.50;;;;;;;;;;4974285;28;20200;-60
2022/05/03 11:37:46;;;;;;;5.82;5.32;;;;;;;;;;4973663;28;20206;-60
2022/05/03 11:40:16;;;;;;;5.80;5.22;;;;;;;;;;4959073;28;20200;-60
2022/05/03 11:42:45;;;;;;;7.15;5.32;;;;;;;;;;4954078;29;20551;-59
2022/05/03 11:45:13;;;;;;;6.85;5.68;;;;;;;;;;4955460;28;20204;-59
2022/05/03 11:47:41;;;;;;;7.32;5.57;;;;;;;;;;4958480;28;20215;-59
2022/05/03 11:50:09;;;;;;;8.27;5.78;;;;;;;;;;4974073;28;20208;-59
2022/05/03 11:58:09;;;;;;;7.43;5.43;;;;;;;;;;4973638;28;20655;-59
2022/05/03 12:00:47;;;;;;;6.97;5.30;;;;;;;;;;4957781;28;20204;-59
2022/05/03 12:03:15;;;;;;;8.07;5.07;;;;;;;;;;4953739;28;20219;-59
2022/05/03 12:05:57;;;;;;;6.50;5.25;;;;;;;;;;4954701;29;20295;-59
2022/05/03 12:08:25;;;;;;;6.28;5.68;;;;;;;;;;4954032;28;20231;-59
2022/05/03 12:10:56;;;;;;;6.53;5.65;;;;;;;;;;4966432;28;20311;-58
2022/05/03 12:13:27;;;;;;;6.57;5.78;;;;;;;;;;4964675;28;20209;-59
2022/05/03 12:16:06;;;;;;;6.40;5.65;;;;;;;;;;4946981;29;20205;-58
2022/05/03 12:18:35;;;;;;;7.47;5.80;;;;;;;;;;4954445;29;20204;-58
2022/05/03 12:21:04;;;;;;;5.32;4.88;;;;;;;;;;4954858;29;20215;-58
2022/05/03 12:23:39;;;;;;;6.55;5.38;;;;;;;;;;4955279;28;20275;-59
2022/05/03 12:26:17;;;;;;;6.45;5.32;;;;;;;;;;4973175;28;20229;-60
2022/05/03 12:28:46;;;;;;;6.22;5.63;;;;;;;;;;4954953;29;20205;-59
2022/05/03 12:31:14;;;;;;;6.32;5.72;;;;;;;;;;4954575;29;20723;-59
2022/05/03 12:33:42;;;;;;;6.18;5.50;;;;;;;;;;4959105;28;20779;-58
2022/05/03 12:36:11;;;;;;;5.82;5.18;;;;;;;;;;4968375;28;20204;-58
2022/05/03 12:38:47;;;;;;;6.10;5.50;;;;;;;;;;4962190;28;20800;-59
2022/05/03 12:41:24;;;;;;;5.82;5.40;;;;;;;;;;4977615;28;20211;-59
2022/05/03 12:44:09;;;;;;;5.72;5.00;;;;;;;;;;4975723;28;20226;-59
2022/05/03 12:46:37;;;;;;;6.85;6.22;;;;;;;;;;4976963;28;20662;-61
2022/05/03 12:49:06;;;;;;;6.55;6.05;;;;;;;;;;4963015;28;20204;-59
2022/05/03 12:51:34;;;;;;;6.00;5.50;;;;;;;;;;4976614;28;20196;-59
2022/05/03 12:54:04;;;;;;;6.35;5.82;;;;;;;;;;4971511;28;20204;-59
2022/05/03 12:59:18;;;;;;;5.65;5.25;;;;;;;;;;4968415;28;20479;-59
2022/05/03 13:01:47;;;;;;;5.70;5.30;;;;;;;;;;4957945;28;20208;-59
2022/05/03 13:04:15;;;;;;;5.80;5.30;;;;;;;;;;4972363;28;20204;-58
2022/05/03 13:06:43;;;;;;;5.30;4.90;;;;;;;;;;4976877;28;20259;-59
2022/05/03 13:09:10;;;;;;;5.93;5.32;;;;;;;;;;4975756;28;20210;-59
2022/05/03 13:11:39;;;;;;;6.03;5.20;;;;;;;;;;4976991;28;20226;-59
2022/05/03 13:14:08;;;;;;;5.60;4.90;;;;;;;;;;4977163;28;20226;-59
2022/05/03 13:16:35;;;;;;;5.32;4.90;;;;;;;;;;4969822;28;20191;-59
2022/05/03 13:19:03;;;;;;;5.25;4.85;;;;;;;;;;4971123;28;20210;-59
2022/05/03 13:21:30;;;;;;;5.90;5.40;;;;;;;;;;4973445;28;20227;-59
2022/05/03 13:23:57;;;;;;;5.10;4.70;;;;;;;;;;4962648;28;20219;-59
2022/05/03 13:26:25;;;;;;;5.28;4.80;;;;;;;;;;4973145;28;20217;-58
2022/05/03 13:28:54;;;;;;;5.82;5.28;;;;;;;;;;4970490;28;20239;-59
2022/05/03 13:31:22;;;;;;;5.55;5.15;;;;;;;;;;4955628;28;20204;-59
2022/05/03 13:33:49;;;;;;;5.90;5.40;;;;;;;;;;4956700;28;20212;-59
2022/05/03 13:41:52;;;;;;;6.15;5.50;;;;;;;;;;4955792;28;20621;-59
2022/05/03 13:44:21;;;;;;;5.90;5.40;;;;;;;;;;4956364;28;20208;-59
2022/05/03 13:46:49;;;;;;;5.20;4.80;;;;;;;;;;4955963;28;20737;-59
2022/05/03 13:49:16;;;;;;;5.20;4.80;;;;;;;;;;4969765;28;20283;-59
2022/05/03 13:51:43;;;;;;;5.75;5.25;;;;;;;;;;4955648;29;20208;-59
2022/05/03 13:54:11;;;;;;;5.22;4.82;;;;;;;;;;4955873;28;20200;-59
2022/05/03 13:56:38;;;;;;;5.20;4.80;;;;;;;;;;4955374;28;20211;-59
2022/05/03 13:59:06;;;;;;;5.35;4.95;;;;;;;;;;4963101;28;20214;-59
2022/05/03 14:01:35;;;;;;;5.30;4.90;;;;;;;;;;4975092;28;20212;-59
2022/05/03 14:04:03;;;;;;;5.30;4.90;;;;;;;;;;4975235;28;20204;-59
2022/05/03 14:06:30;;;;;;;7.13;5.05;;;;;;;;;;4957863;28;20200;-58
2022/05/03 14:08:58;;;;;;;5.15;4.82;;;;;;;;;;4959312;28;20207;-58
2022/05/03 14:11:26;;;;;;;5.55;5.05;;;;;;;;;;4965315;28;20211;-58
2022/05/03 14:13:53;;;;;;;5.13;4.72;;;;;;;;;;4955757;29;20200;-58
2022/05/03 14:16:21;;;;;;;5.18;4.78;;;;;;;;;;4973216;28;20585;-58
2022/05/03 14:18:50;;;;;;;5.35;4.95;;;;;;;;;;4972343;28;20476;-58
2022/05/03 14:21:17;;;;;;;5.50;5.00;;;;;;;;;;4962621;28;20204;-58
2022/05/03 14:23:45;;;;;;;5.63;5.20;;;;;;;;;;4955662;29;20212;-58
2022/05/03 14:26:12;;;;;;;5.80;5.38;;;;;;;;;;4956406;29;20219;-58
2022/05/03 14:28:41;;;;;;;5.10;4.70;;;;;;;;;;4955018;29;20231;-58
2022/05/03 14:31:09;;;;;;;4.95;4.55;;;;;;;;;;4955554;29;20208;-58
2022/05/03 14:33:36;;;;;;;5.35;4.95;;;;;;;;;;4955494;28;20252;-58
2022/05/03 14:36:05;;;;;;;4.72;4.32;;;;;;;;;;4962363;28;20231;-58
2022/05/03 14:38:33;;;;;;;6.00;5.50;;;;;;;;;;4960453;28;20201;-59
2022/05/03 14:41:00;;;;;;;5.30;4.90;;;;;;;;;;4972609;28;20204;-59
2022/05/03 14:43:28;;;;;;;5.00;4.60;;;;;;;;;;4963009;28;20499;-59
2022/05/03 14:45:55;;;;;;;4.85;4.55;;;;;;;;;;4963793;28;20203;-59
2022/05/03 14:48:22;;;;;;;5.25;4.90;;;;;;;;;;4963371;28;20228;-59
2022/05/03 14:50:50;;;;;;;5.03;4.72;;;;;;;;;;4953743;28;20208;-59
2022/05/03 14:53:20;;;;;;;4.75;4.45;;;;;;;;;;4951999;28;20215;-59
2022/05/03 15:03:59;;;;;;;5.47;5.07;;;;;;;;;;4952232;28;20255;-59
2022/05/03 15:06:26;;;;;;;4.75;4.45;;;;;;;;;;4965813;28;20624;-59
2022/05/03 15:08:55;;;;;;;4.80;4.50;;;;;;;;;;4954772;28;20224;-59
2022/05/03 15:11:22;;;;;;;5.28;4.88;;;;;;;;;;4952345;28;20200;-59
2022/05/03 15:13:50;;;;;;;5.07;4.68;;;;;;;;;;4951721;28;20204;-59
2022/05/03 15:16:17;;;;;;;5.03;4.72;;;;;;;;;;4952951;29;20208;-59
2022/05/03 15:18:45;;;;;;;5.25;4.82;;;;;;;;;;4963702;28;20202;-59
2022/05/03 15:21:12;;;;;;;5.10;4.80;;;;;;;;;;4971487;28;20597;-59
2022/05/03 15:26:26;;;;;;;5.28;4.97;;;;;;;;;;4973924;28;20194;-59
2022/05/03 15:28:53;;;;;;;4.78;4.47;;;;;;;;;;4969126;28;20231;-59
2022/05/03 15:31:21;;;;;;;4.88;4.57;;;;;;;;;;4953805;28;20224;-59
2022/05/03 15:33:48;;;;;;;4.78;4.38;;;;;;;;;;4978156;28;20192;-59
2022/05/03 15:36:15;;;;;;;5.05;4.75;;;;;;;;;;4993278;28;20199;-59
2022/05/03 15:38:43;;;;;;;5.15;4.85;;;;;;;;;;4973247;28;20214;-59
2022/05/03 15:41:11;;;;;;;5.13;4.82;;;;;;;;;;4985293;28;20200;-59
2022/05/03 15:43:40;;;;;;;5.22;4.82;;;;;;;;;;4975321;28;20260;-59
2022/05/03 15:46:08;;;;;;;5.00;4.50;;;;;;;;;;4992064;28;20498;-59
2022/05/03 15:48:36;;;;;;;5.38;4.97;;;;;;;;;;4982515;28;20238;-59